createdAt,value
2019-03-21T00:00:49.213Z,102719.84
2019-03-21T00:03:16.432Z,102721.21
2019-03-21T00:05:44.837Z,102729.99
2019-03-21T00:08:13.264Z,102728.13
2019-03-21T00:10:47.171Z,102715.92
2019-03-21T00:13:15.582Z,102724.41
2019-03-21T00:15:50.053Z,102731.37
2019-03-21T00:18:18.455Z,102726.48
2019-03-21T00:20:46.936Z,102729.01
2019-03-21T00:23:15.339Z,102728.53
2019-03-21T00:25:43.822Z,102735.17
2019-03-21T00:28:12.323Z,102731.86
2019-03-21T00:30:40.801Z,102737.04
2019-03-21T00:33:09.185Z,102744.97
2019-03-21T00:35:38.683Z,102743.00
2019-03-21T00:38:07.195Z,102739.48
2019-03-21T00:40:43.865Z,102747.78
2019-03-21T00:43:12.877Z,102740.17
2019-03-21T00:45:41.315Z,102735.08
2019-03-21T00:48:16.247Z,102738.27
2019-03-21T00:50:44.652Z,102734.56
2019-03-21T00:53:13.158Z,102739.02
2019-03-21T00:55:44.910Z,102739.11
2019-03-21T00:58:13.315Z,102733.74
2019-03-21T01:00:44.864Z,102733.25
2019-03-21T01:03:14.045Z,102730.36
2019-03-21T01:05:42.884Z,102731.89
2019-03-21T01:08:11.363Z,102734.42
2019-03-21T01:10:39.790Z,102733.16
2019-03-21T01:13:08.200Z,102728.21
2019-03-21T01:15:36.616Z,102727.17
2019-03-21T01:18:05.282Z,102729.80
2019-03-21T01:20:33.693Z,102723.52
2019-03-21T01:23:02.489Z,102724.41
2019-03-21T01:25:37.226Z,102726.91
2019-03-21T01:28:05.722Z,102718.37
2019-03-21T01:30:34.114Z,102718.28
2019-03-21T01:33:02.521Z,102716.61
2019-03-21T01:35:30.948Z,102717.80
2019-03-21T01:37:59.340Z,102713.20
2019-03-21T01:40:46.015Z,102713.98
2019-03-21T01:43:14.486Z,102715.94
2019-03-21T01:45:42.881Z,102717.00
2019-03-21T01:48:11.531Z,102722.17
2019-03-21T01:50:41.083Z,102723.26
2019-03-21T01:53:09.498Z,102717.01
2019-03-21T01:55:37.911Z,102721.25
2019-03-21T01:58:06.587Z,102718.09
2019-03-21T02:00:40.208Z,102713.10
2019-03-21T02:03:08.602Z,102712.45
2019-03-21T02:05:37.026Z,102710.90
2019-03-21T02:08:05.674Z,102706.95
2019-03-21T02:10:34.721Z,102703.05
2019-03-21T02:13:03.188Z,102701.58
2019-03-21T02:15:31.664Z,102698.70
2019-03-21T02:18:00.066Z,102701.52
2019-03-21T02:20:28.882Z,102696.84
2019-03-21T02:22:57.363Z,102700.16
2019-03-21T02:25:28.625Z,102694.80
2019-03-21T02:27:57.070Z,102699.73
2019-03-21T02:33:46.495Z,102696.94
2019-03-21T02:36:14.905Z,102682.84
2019-03-21T02:38:43.346Z,102685.44
2019-03-21T02:41:16.509Z,102681.83
2019-03-21T02:43:44.939Z,102691.43
2019-03-21T02:46:13.416Z,102685.54
2019-03-21T02:48:41.823Z,102682.55
2019-03-21T02:51:10.275Z,102677.66
2019-03-21T02:53:38.644Z,102676.65
2019-03-21T02:56:10.409Z,102681.47
2019-03-21T02:58:38.830Z,102682.63
2019-03-21T03:01:07.238Z,102691.63
2019-03-21T03:03:35.644Z,102687.73
2019-03-21T03:06:04.181Z,102688.31
2019-03-21T03:08:32.641Z,102685.34
2019-03-21T03:11:13.150Z,102693.63
2019-03-21T03:13:44.025Z,102693.48
2019-03-21T03:16:12.424Z,102695.61
2019-03-21T03:18:40.924Z,102693.36
2019-03-21T03:21:09.322Z,102694.97
2019-03-21T03:23:37.747Z,102692.23
2019-03-21T03:26:06.175Z,102693.11
2019-03-21T03:28:37.653Z,102693.99
2019-03-21T03:31:06.063Z,102693.02
2019-03-21T03:33:34.461Z,102690.09
2019-03-21T03:36:02.941Z,102690.17
2019-03-21T03:38:31.396Z,102699.44
2019-03-21T03:41:04.895Z,102690.68
2019-03-21T03:43:33.522Z,102692.78
2019-03-21T03:46:01.985Z,102698.98
2019-03-21T03:48:30.660Z,102694.87
2019-03-21T03:50:59.058Z,102697.80
2019-03-21T03:53:27.466Z,102696.33
2019-03-21T03:55:55.968Z,102702.17
2019-03-21T03:58:25.806Z,102700.70
2019-03-21T04:00:54.270Z,102703.66
2019-03-21T04:03:22.843Z,102700.83
2019-03-21T04:05:51.265Z,102704.99
2019-03-21T04:08:19.650Z,102706.19
2019-03-21T04:10:50.442Z,102701.11
2019-03-21T04:13:18.850Z,102708.06
2019-03-21T04:15:53.394Z,102702.66
2019-03-21T04:18:19.709Z,102707.09
2019-03-21T04:20:59.878Z,102706.77
2019-03-21T04:23:28.301Z,102713.22
2019-03-21T04:26:06.029Z,102716.35
2019-03-21T04:28:34.670Z,102715.97
2019-03-21T04:31:03.143Z,102707.58
2019-03-21T04:33:31.530Z,102713.12
2019-03-21T04:35:59.936Z,102715.92
2019-03-21T04:38:28.436Z,102714.57
2019-03-21T04:40:56.845Z,102713.12
2019-03-21T04:43:25.314Z,102711.67
2019-03-21T04:46:02.971Z,102713.92
2019-03-21T04:48:23.870Z,102712.94
2019-03-21T04:50:52.309Z,102715.72
2019-03-21T04:53:20.702Z,102712.73
2019-03-21T04:55:49.114Z,102720.41
2019-03-21T04:58:17.617Z,102715.42
2019-03-21T05:00:57.241Z,102717.84
2019-03-21T05:03:30.209Z,102716.61
2019-03-21T05:05:58.605Z,102716.79
2019-03-21T05:08:27.036Z,102717.39
2019-03-21T05:10:55.508Z,102712.73
2019-03-21T05:13:23.904Z,102711.53
2019-03-21T05:15:53.857Z,102714.09
2019-03-21T05:18:41.183Z,102715.67
2019-03-21T05:21:12.651Z,102720.83
2019-03-21T05:23:41.060Z,102714.09
2019-03-21T05:26:09.471Z,102715.67
2019-03-21T05:28:37.898Z,102713.38
2019-03-21T05:31:24.601Z,102715.42
2019-03-21T05:33:53.053Z,102722.38
2019-03-21T05:36:21.459Z,102723.50
2019-03-21T05:38:49.868Z,102728.30
2019-03-21T05:41:18.302Z,102729.67
2019-03-21T05:43:52.747Z,102730.66
2019-03-21T05:46:26.513Z,102738.36
2019-03-21T05:48:51.433Z,102745.29
2019-03-21T05:51:19.828Z,102749.44
2019-03-21T05:53:48.251Z,102744.16
2019-03-21T05:56:16.673Z,102741.52
2019-03-21T05:58:45.188Z,102744.87
2019-03-21T06:01:14.100Z,102745.92
2019-03-21T06:03:49.827Z,102744.94
2019-03-21T06:06:21.286Z,102742.41
2019-03-21T06:08:49.787Z,102744.48
2019-03-21T06:11:18.163Z,102743.00
2019-03-21T06:13:46.588Z,102750.10
2019-03-21T06:16:14.995Z,102748.53
2019-03-21T06:18:55.518Z,102756.27
2019-03-21T06:21:26.972Z,102756.87
2019-03-21T06:24:27.619Z,102754.34
2019-03-21T06:27:13.970Z,102762.11
2019-03-21T06:29:35.269Z,102758.48
2019-03-21T06:32:03.856Z,102761.62
2019-03-21T06:34:32.464Z,102765.42
2019-03-21T06:37:00.884Z,102756.97
2019-03-21T06:39:29.284Z,102755.39
2019-03-21T06:41:57.702Z,102758.63
2019-03-21T06:44:26.126Z,102751.16
2019-03-21T06:46:54.562Z,102751.89
2019-03-21T06:49:22.969Z,102754.53
2019-03-21T06:51:51.406Z,102750.83
2019-03-21T06:54:19.815Z,102761.59
2019-03-21T06:56:48.252Z,102725.95
2019-03-21T06:59:16.661Z,102761.97
2019-03-21T07:01:45.081Z,102765.20
2019-03-21T07:04:13.500Z,102768.67
2019-03-21T07:06:41.992Z,102766.55
2019-03-21T07:09:10.443Z,102761.14
2019-03-21T07:11:38.864Z,102759.88
2019-03-21T07:14:07.340Z,102756.88
2019-03-21T07:16:35.891Z,102764.53
2019-03-21T07:19:04.371Z,102763.27
2019-03-21T07:21:32.893Z,102758.59
2019-03-21T07:24:01.297Z,102761.27
2019-03-21T07:26:29.711Z,102763.14
2019-03-21T07:28:58.147Z,102766.10
2019-03-21T07:31:26.558Z,102760.44
2019-03-21T07:33:54.969Z,102766.01
2019-03-21T07:36:26.085Z,102760.38
2019-03-21T07:38:53.614Z,102765.65
2019-03-21T07:41:22.041Z,102764.96
2019-03-21T07:43:50.465Z,102760.95
2019-03-21T07:46:18.871Z,102757.47
2019-03-21T07:48:47.310Z,102762.73
2019-03-21T07:51:15.772Z,102757.87
2019-03-21T07:53:44.192Z,102759.81
2019-03-21T07:56:12.642Z,102760.68
2019-03-21T07:58:41.087Z,102768.69
2019-03-21T08:01:09.704Z,102760.86
2019-03-21T08:03:38.154Z,102760.27
2019-03-21T08:06:06.582Z,102757.73
2019-03-21T08:08:34.996Z,102747.92
2019-03-21T08:11:03.497Z,102753.10
2019-03-21T08:13:31.913Z,102756.74
2019-03-21T08:16:00.435Z,102754.20
2019-03-21T08:18:28.844Z,102753.20
2019-03-21T08:20:59.930Z,102749.34
2019-03-21T08:23:27.424Z,102748.16
2019-03-21T08:25:55.834Z,102752.03
2019-03-21T08:28:24.304Z,102750.19
2019-03-21T08:31:07.760Z,102745.75
2019-03-21T08:33:36.205Z,102741.63
2019-03-21T08:36:04.790Z,102741.70
2019-03-21T08:38:33.214Z,102744.16
2019-03-21T08:41:01.651Z,102744.54
2019-03-21T08:43:30.060Z,102750.03
2019-03-21T08:45:58.473Z,102753.64
2019-03-21T08:48:26.949Z,102754.03
2019-03-21T08:50:55.374Z,102748.67
2019-03-21T08:53:23.789Z,102750.91
2019-03-21T08:55:52.194Z,102755.70
2019-03-21T08:58:20.621Z,102758.34
2019-03-21T09:00:49.072Z,102760.18
2019-03-21T09:03:17.471Z,102762.67
2019-03-21T09:05:45.968Z,102759.73
2019-03-21T09:08:14.405Z,102761.55
2019-03-21T09:10:42.891Z,102761.80
2019-03-21T09:13:11.341Z,102762.80
2019-03-21T09:15:39.768Z,102757.62
2019-03-21T09:18:08.192Z,102759.97
2019-03-21T09:20:36.612Z,102765.83
2019-03-21T09:23:05.079Z,102754.44
2019-03-21T09:25:33.502Z,102754.35
2019-03-21T09:28:02.868Z,102751.20
2019-03-21T09:30:31.592Z,102757.02
2019-03-21T09:33:00.011Z,102752.45
2019-03-21T09:35:28.517Z,102755.56
2019-03-21T09:37:56.933Z,102753.19
2019-03-21T09:40:25.347Z,102755.66
2019-03-21T09:42:53.849Z,102752.95
2019-03-21T09:45:22.400Z,102746.64
2019-03-21T09:47:50.838Z,102753.34
2019-03-21T09:50:27.823Z,102744.58
2019-03-21T09:52:56.336Z,102745.20
2019-03-21T09:55:25.294Z,102742.91
2019-03-21T09:57:53.694Z,102745.91
2019-03-21T10:00:36.999Z,102747.59
2019-03-21T10:03:06.366Z,102749.97
2019-03-21T10:05:34.844Z,102744.05
2019-03-21T10:08:03.706Z,102744.64
2019-03-21T10:10:33.448Z,102750.48
2019-03-21T10:13:01.983Z,102747.56
2019-03-21T10:15:30.469Z,102745.01
2019-03-21T10:17:58.978Z,102740.92
2019-03-21T10:20:27.422Z,102741.94
2019-03-21T10:22:55.812Z,102735.87
2019-03-21T10:25:26.525Z,102736.34
2019-03-21T10:27:54.397Z,102744.44
2019-03-21T10:30:34.529Z,102737.56
2019-03-21T10:33:03.969Z,102732.13
2019-03-21T10:35:32.723Z,102733.27
2019-03-21T10:38:01.476Z,102731.30
2019-03-21T10:40:29.911Z,102731.30
2019-03-21T10:42:58.323Z,102724.22
2019-03-21T10:45:26.770Z,102729.06
2019-03-21T10:47:55.249Z,102724.32
2019-03-21T10:50:35.341Z,102720.05
2019-03-21T10:53:04.569Z,102724.73
2019-03-21T10:55:32.995Z,102718.87
2019-03-21T10:58:01.416Z,102721.56
2019-03-21T11:00:29.940Z,102716.06
2019-03-21T11:05:42.190Z,102709.25
2019-03-21T11:08:10.762Z,102708.91
2019-03-21T11:10:39.222Z,102709.20
2019-03-21T11:13:07.738Z,102709.53
2019-03-21T11:15:36.410Z,102711.81
2019-03-21T11:18:05.055Z,102707.86
2019-03-21T11:20:35.133Z,102706.22
2019-03-21T11:23:04.593Z,102699.48
2019-03-21T11:25:33.071Z,102695.51
2019-03-21T11:28:01.563Z,102696.25
2019-03-21T11:30:35.145Z,102695.52
2019-03-21T11:33:04.226Z,102694.83
2019-03-21T11:35:34.148Z,102694.58
2019-03-21T11:38:02.749Z,102691.11
2019-03-21T11:40:31.287Z,102689.80
2019-03-21T11:42:59.956Z,102683.13
2019-03-21T11:45:28.619Z,102681.48
2019-03-21T11:47:59.652Z,102676.37
2019-03-21T11:50:27.396Z,102675.36
2019-03-21T11:52:55.827Z,102680.03
2019-03-21T11:55:24.383Z,102672.77
2019-03-21T11:57:52.872Z,102666.89
2019-03-21T12:00:21.373Z,102666.86
2019-03-21T12:02:49.778Z,102657.25
2019-03-21T12:05:18.359Z,102660.59
2019-03-21T12:07:46.850Z,102658.21
2019-03-21T12:10:16.696Z,102655.38
2019-03-21T12:12:45.132Z,102657.48
2019-03-21T12:15:14.162Z,102651.42
2019-03-21T12:17:42.591Z,102645.97
2019-03-21T12:20:13.827Z,102649.60
2019-03-21T12:22:42.246Z,102643.82
2019-03-21T12:25:11.087Z,102633.50
2019-03-21T12:27:39.515Z,102634.88
2019-03-21T12:30:11.100Z,102633.36
2019-03-21T12:32:39.536Z,102632.02
2019-03-21T12:35:08.498Z,102626.36
2019-03-21T12:37:36.914Z,102624.16
2019-03-21T12:40:09.254Z,102620.91
2019-03-21T12:42:37.671Z,102617.37
2019-03-21T12:45:10.174Z,102615.27
2019-03-21T12:47:38.657Z,102615.02
2019-03-21T12:50:08.743Z,102610.13
2019-03-21T12:52:41.589Z,102608.55
2019-03-21T12:55:08.020Z,102605.38
2019-03-21T12:57:36.519Z,102603.67
2019-03-21T13:00:10.535Z,102604.33
2019-03-21T13:02:39.070Z,102595.70
2019-03-21T13:05:08.606Z,102595.62
2019-03-21T13:07:37.176Z,102591.25
2019-03-21T13:10:06.954Z,102592.10
2019-03-21T13:12:35.421Z,102593.72
2019-03-21T13:15:05.773Z,102583.44
2019-03-21T13:17:34.186Z,102580.81
2019-03-21T13:20:02.690Z,102580.75
2019-03-21T13:22:31.102Z,102576.34
2019-03-21T13:24:59.526Z,102582.13
2019-03-21T13:27:27.927Z,102577.38
2019-03-21T13:29:56.473Z,102567.45
2019-03-21T13:32:24.940Z,102562.42
2019-03-21T13:34:53.437Z,102563.81
2019-03-21T13:37:21.852Z,102557.59
2019-03-21T13:39:50.246Z,102561.78
2019-03-21T13:42:18.689Z,102556.97
2019-03-21T13:44:47.105Z,102556.16
2019-03-21T13:47:15.608Z,102554.55
2019-03-21T13:49:44.113Z,102553.25
2019-03-21T13:52:12.526Z,102540.38
2019-03-21T13:54:41.654Z,102543.48
2019-03-21T13:57:10.129Z,102537.10
2019-03-21T13:59:38.766Z,102535.48
2019-03-21T14:02:07.218Z,102535.36
2019-03-21T14:04:35.639Z,102531.02
2019-03-21T14:07:04.121Z,102528.88
2019-03-21T14:09:32.616Z,102519.14
2019-03-21T14:12:01.038Z,102518.83
2019-03-21T14:14:29.477Z,102522.37
2019-03-21T14:16:57.949Z,102513.48
2019-03-21T14:19:26.391Z,102517.30
2019-03-21T14:21:54.832Z,102512.28
2019-03-21T14:24:23.447Z,102509.61
2019-03-21T14:26:51.874Z,102512.11
2019-03-21T14:29:20.324Z,102500.55
2019-03-21T14:31:48.762Z,102504.75
2019-03-21T14:34:17.299Z,102503.13
2019-03-21T14:36:45.724Z,102504.41
2019-03-21T14:39:14.150Z,102497.25
2019-03-21T14:41:42.599Z,102496.31
2019-03-21T14:44:11.014Z,102495.34
2019-03-21T14:46:39.472Z,102495.84
2019-03-21T14:49:07.910Z,102495.67
2019-03-21T14:51:36.328Z,102490.75
2019-03-21T14:54:04.877Z,102492.84
2019-03-21T14:56:33.315Z,102493.14
2019-03-21T14:59:01.775Z,102499.80
2019-03-21T15:01:30.168Z,102493.63
2019-03-21T15:03:58.614Z,102494.71
2019-03-21T15:06:27.040Z,102497.58
2019-03-21T15:08:55.482Z,102490.64
2019-03-21T15:11:23.897Z,102488.81
2019-03-21T15:13:52.319Z,102483.67
2019-03-21T15:16:20.841Z,102489.22
2019-03-21T15:18:49.280Z,102475.88
2019-03-21T15:21:17.713Z,102471.98
2019-03-21T15:23:46.181Z,102468.05
2019-03-21T15:26:14.589Z,102474.81
2019-03-21T15:28:43.021Z,102474.70
2019-03-21T15:31:11.478Z,102478.94
2019-03-21T15:33:39.915Z,102477.08
2019-03-21T15:36:08.412Z,102477.17
2019-03-21T15:38:36.819Z,102473.19
2019-03-21T15:41:05.325Z,102467.52
2019-03-21T15:43:33.728Z,102465.78
2019-03-21T15:46:02.224Z,102464.49
2019-03-21T15:48:30.665Z,102461.05
2019-03-21T15:51:04.547Z,102465.02
2019-03-21T15:53:29.404Z,102460.78
2019-03-21T15:55:57.804Z,102459.56
2019-03-21T15:58:26.220Z,102457.41
2019-03-21T16:00:54.818Z,102468.17
2019-03-21T16:03:23.275Z,102461.23
2019-03-21T16:05:51.723Z,102465.15
2019-03-21T16:08:20.152Z,102456.91
2019-03-21T16:10:53.444Z,102463.23
2019-03-21T16:13:21.856Z,102458.38
2019-03-21T16:15:50.276Z,102456.33
2019-03-21T16:18:18.790Z,102458.56
2019-03-21T16:20:47.308Z,102460.25
2019-03-21T16:23:15.697Z,102458.06
2019-03-21T16:25:44.141Z,102454.09
2019-03-21T16:28:12.589Z,102454.34
2019-03-21T16:30:41.094Z,102457.75
2019-03-21T16:33:09.575Z,102452.59
2019-03-21T16:35:38.013Z,102452.16
2019-03-21T16:38:06.483Z,102451.74
2019-03-21T16:40:34.992Z,102450.00
2019-03-21T16:43:05.559Z,102446.92
2019-03-21T16:45:33.723Z,102443.84
2019-03-21T16:48:02.152Z,102457.47
2019-03-21T16:50:30.595Z,102449.56
2019-03-21T16:52:59.146Z,102448.38
2019-03-21T16:55:27.638Z,102452.14
2019-03-21T16:57:56.250Z,102452.93
2019-03-21T17:00:24.759Z,102450.15
2019-03-21T17:02:53.169Z,102442.98
2019-03-21T17:05:22.626Z,102445.98
2019-03-21T17:07:51.192Z,102441.31
2019-03-21T17:10:21.462Z,102443.32
2019-03-21T17:12:50.019Z,102441.52
2019-03-21T17:15:18.479Z,102440.63
2019-03-21T17:17:46.899Z,102447.27
2019-03-21T17:20:15.574Z,102441.09
2019-03-21T17:22:43.966Z,102438.72
2019-03-21T17:25:13.429Z,102442.33
2019-03-21T17:27:41.924Z,102441.09
2019-03-21T17:30:15.162Z,102449.50
2019-03-21T17:32:43.588Z,102443.44
2019-03-21T17:35:12.752Z,102453.44
2019-03-21T17:37:41.175Z,102458.27
2019-03-21T17:40:12.594Z,102456.77
2019-03-21T17:42:41.075Z,102467.61
2019-03-21T17:45:12.516Z,102457.78
2019-03-21T17:47:40.955Z,102461.80
2019-03-21T17:50:12.205Z,102463.14
2019-03-21T17:52:40.639Z,102454.66
2019-03-21T17:55:10.296Z,102451.02
2019-03-21T17:57:38.728Z,102458.13
2019-03-21T18:00:20.685Z,102456.96
2019-03-21T18:02:49.184Z,102462.48
2019-03-21T18:05:17.604Z,102468.16
2019-03-21T18:07:46.097Z,102466.12
2019-03-21T18:10:17.561Z,102468.57
2019-03-21T18:12:45.980Z,102475.02
2019-03-21T18:15:14.698Z,102472.55
2019-03-21T18:17:43.118Z,102477.34
2019-03-21T18:20:11.541Z,102479.31
2019-03-21T18:22:40.216Z,102477.66
2019-03-21T18:25:08.794Z,102481.11
2019-03-21T18:27:37.210Z,102484.31
2019-03-21T18:30:07.641Z,102478.77
2019-03-21T18:32:36.123Z,102484.48
2019-03-21T18:35:06.306Z,102489.30
2019-03-21T18:37:34.913Z,102492.70
2019-03-21T18:40:03.583Z,102495.95
2019-03-21T18:42:31.980Z,102495.38
2019-03-21T18:45:00.427Z,102501.66
2019-03-21T18:47:29.119Z,102494.58
2019-03-21T18:49:57.555Z,102496.27
2019-03-21T18:52:26.058Z,102494.47
2019-03-21T18:55:05.702Z,102501.25
2019-03-21T18:57:25.132Z,102493.26
2019-03-21T18:59:53.964Z,102505.66
2019-03-21T19:02:22.398Z,102498.48
2019-03-21T19:04:50.914Z,102495.40
2019-03-21T19:07:19.425Z,102496.88
2019-03-21T19:09:47.932Z,102495.28
2019-03-21T19:12:16.345Z,102496.55
2019-03-21T19:14:44.761Z,102494.70
2019-03-21T19:17:13.206Z,102488.83
2019-03-21T19:19:41.647Z,102487.53
2019-03-21T19:22:10.187Z,102487.71
2019-03-21T19:24:38.622Z,102492.19
2019-03-21T19:27:07.139Z,102497.08
2019-03-21T19:29:35.691Z,102494.40
2019-03-21T19:32:04.214Z,102494.69
2019-03-21T19:34:32.639Z,102499.29
2019-03-21T19:37:01.105Z,102499.87
2019-03-21T19:39:29.543Z,102501.91
2019-03-21T19:41:58.044Z,102501.23
2019-03-21T19:44:26.477Z,102502.55
2019-03-21T19:46:54.889Z,102507.44
2019-03-21T19:49:23.351Z,102501.41
2019-03-21T19:51:51.746Z,102504.93
2019-03-21T19:54:20.196Z,102509.88
2019-03-21T19:56:48.704Z,102507.14
2019-03-21T19:59:17.112Z,102505.07
2019-03-21T20:01:45.544Z,102504.19
2019-03-21T20:04:13.955Z,102510.38
2019-03-21T20:06:42.388Z,102513.56
2019-03-21T20:09:10.807Z,102511.48
2019-03-21T20:11:39.301Z,102509.55
2019-03-21T20:14:07.953Z,102516.76
2019-03-21T20:16:36.398Z,102510.45
2019-03-21T20:19:04.930Z,102506.87
2019-03-21T20:21:33.345Z,102511.27
2019-03-21T20:24:01.782Z,102512.88
2019-03-21T20:26:30.212Z,102505.83
2019-03-21T20:28:58.714Z,102500.77
2019-03-21T20:31:27.140Z,102499.36
2019-03-21T20:33:55.565Z,102506.75
2019-03-21T20:36:24.002Z,102503.94
2019-03-21T20:38:52.404Z,102504.41
2019-03-21T20:41:20.931Z,102508.52
2019-03-21T20:43:49.399Z,102507.97
2019-03-21T20:46:17.947Z,102504.53
2019-03-21T20:48:45.234Z,102503.45
2019-03-21T20:51:13.716Z,102508.45
2019-03-21T20:53:42.125Z,102500.77
2019-03-21T20:56:10.559Z,102498.09
2019-03-21T20:58:39.016Z,102493.84
2019-03-21T21:01:07.503Z,102501.31
2019-03-21T21:03:35.902Z,102496.20
2019-03-21T21:06:04.401Z,102491.83
2019-03-21T21:08:32.807Z,102484.23
2019-03-21T21:11:03.359Z,102488.39
2019-03-21T21:13:31.867Z,102486.83
2019-03-21T21:16:00.302Z,102482.69
2019-03-21T21:18:28.756Z,102478.11
2019-03-21T21:20:57.154Z,102482.73
2019-03-21T21:23:25.592Z,102480.97
2019-03-21T21:26:04.768Z,102477.49
2019-03-21T21:28:24.361Z,102470.98
2019-03-21T21:30:52.782Z,102469.34
2019-03-21T21:33:21.203Z,102466.65
2019-03-21T21:35:49.648Z,102473.15
2019-03-21T21:38:18.077Z,102472.08
2019-03-21T21:40:46.510Z,102478.94
2019-03-21T21:43:14.948Z,102476.17
2019-03-21T21:45:43.469Z,102476.41
2019-03-21T21:48:11.829Z,102474.45
2019-03-21T21:50:40.330Z,102472.52
2019-03-21T21:53:08.825Z,102474.90
2019-03-21T21:55:37.249Z,102469.69
2019-03-21T21:58:05.668Z,102472.57
2019-03-21T22:00:34.087Z,102465.88
2019-03-21T22:03:02.595Z,102470.05
2019-03-21T22:05:31.003Z,102466.86
2019-03-21T22:07:59.499Z,102463.19
2019-03-21T22:10:29.531Z,102458.18
2019-03-21T22:12:58.215Z,102464.09
2019-03-21T22:15:26.655Z,102461.96
2019-03-21T22:17:55.118Z,102462.82
2019-03-21T22:20:23.522Z,102459.81
2019-03-21T22:22:51.947Z,102460.61
2019-03-21T22:25:20.441Z,102454.56
2019-03-21T22:27:48.872Z,102459.34
2019-03-21T22:30:19.577Z,102455.23
2019-03-21T22:32:48.071Z,102458.66
2019-03-21T22:35:16.571Z,102457.51
2019-03-21T22:37:44.994Z,102461.98
2019-03-21T22:40:15.665Z,102466.77
2019-03-21T22:42:44.081Z,102458.92
2019-03-21T22:45:17.581Z,102460.89
2019-03-21T22:47:45.958Z,102453.97
2019-03-21T22:50:16.659Z,102455.95
2019-03-21T22:52:45.728Z,102456.66
2019-03-21T22:55:14.707Z,102448.25
2019-03-21T22:57:43.159Z,102447.45
2019-03-21T23:00:22.396Z,102437.13
2019-03-21T23:02:50.930Z,102438.45
2019-03-21T23:05:20.580Z,102436.04
2019-03-21T23:07:49.072Z,102440.55
2019-03-21T23:10:20.605Z,102436.48
2019-03-21T23:12:49.110Z,102436.16
2019-03-21T23:15:17.595Z,102436.48
2019-03-21T23:17:46.063Z,102437.44
2019-03-21T23:20:15.535Z,102430.03
2019-03-21T23:22:44.163Z,102430.30
2019-03-21T23:25:16.314Z,102438.67
2019-03-21T23:27:43.817Z,102434.38
2019-03-21T23:30:17.152Z,102437.52
2019-03-21T23:32:45.702Z,102445.48
2019-03-21T23:35:15.050Z,102440.53
2019-03-21T23:37:43.512Z,102434.53
2019-03-21T23:40:15.898Z,102426.95
2019-03-21T23:42:44.483Z,102430.16
2019-03-21T23:45:14.566Z,102427.28
2019-03-21T23:47:43.133Z,102425.45
2019-03-21T23:50:15.024Z,102422.83
2019-03-21T23:52:43.667Z,102421.62
2019-03-21T23:55:13.236Z,102425.67
2019-03-21T23:57:41.739Z,102417.22
